Flight Track Log - Related Links

Times and Time Zones

All times are in EDT time to prevent confusion due to time zone crossing. See the SWA1046 flight status page for this flight to view local times or setup timezone preferences in your user account.

Time Position Orientation Groundspeed Altitude Reporting Facility
EDT Latitude Longitude Course Direction KTS MPH feet Rate Location/Type
Mon 07:52:39 AM 42.7339 -73.8081 179° South 139 160 1,200  Level Boston Center
Mon 07:52:58 AM 42.7214 -73.8078 179° South 149 171 1,800 2,430 Climbing Boston Center
Mon 07:53:58 AM 42.7000 -73.8583 240° Southwest 226 260 4,400 2,893 Climbing Boston Center
Mon 07:54:50 AM 42.7222 -73.9211 296° West 226 260 7,200 3,000 Climbing Boston Center
Mon 07:55:50 AM 42.7483 -73.9950 296° West 247 284 10,000 2,950 Climbing Boston Center
Mon 07:56:50 AM 42.7303 -74.0908 256° West 233 268 13,100 3,450 Climbing Boston Center
Mon 07:57:50 AM 42.7119 -74.1919 256° West 261 300 16,900 2,600 Climbing Boston Center
Mon 07:58:50 AM 42.6469 -74.2211 198° South 239 275 18,300 1,650 Climbing Boston Center
Mon 07:59:50 AM 42.5731 -74.1542 146° Southeast 244 281 20,200 2,250 Climbing Boston Center
Mon 08:00:50 AM 42.4867 -74.0647 143° Southeast 306 352 22,800 1,900 Climbing Boston Center
Mon 08:01:50 AM 42.3983 -73.9722 142° Southeast 361 415 24,000 1,750 Climbing Boston Center
Mon 08:02:50 AM 42.3081 -73.8775 142° Southeast 395 455 26,300 2,100 Climbing Boston Center
Mon 08:03:50 AM 42.1983 -73.8133 157° South 412 474 28,200 2,000 Climbing Boston Center
Mon 08:05:00 AM 42.0822 -73.8506 200° South  Level FlightAware Approximate
Mon 08:05:50 AM 41.9472 -73.8917 200° South 437 503 32,300  Level Boston Center
Mon 08:07:55 AM 41.6961 -74.0103 199° South 440 506 36,900 2,000 Climbing New York Center
Mon 08:08:53 AM 41.5822 -74.0603 198° South 440 506 38,400 1,525 Climbing New York Center
Mon 08:09:53 AM 41.4661 -74.1156 200° South 440 506 39,900 793 Climbing New York Center
Mon 08:10:54 AM 41.3522 -74.1706 200° South 435 501 40,000 33 Climbing New York Center
Mon 08:12:00 AM 41.2427 -74.2271 201° Southwest  Level FlightAware Approximate
Mon 08:12:55 AM 41.1328 -74.2697 201° Southwest 440 506 40,000  Level New York Center
Mon 08:13:53 AM 41.0186 -74.3269 201° Southwest 440 506 40,000  Level New York Center
Mon 08:14:53 AM 40.9086 -74.3789 200° South 435 501 40,000  Level New York Center
Mon 08:15:54 AM 40.7967 -74.4306 199° South 430 495 40,000  Level New York Center
Mon 08:16:54 AM 40.6867 -74.4819 200° South 430 495 40,000  Level New York Center
Mon 08:18:00 AM 40.5765 -74.5363 198° South  Level FlightAware Approximate
Mon 08:18:55 AM 40.4603 -74.5872 198° South 430 495 40,000  Level New York Center
Mon 08:21:02 AM 40.2122 -74.7006 199° South 435 501 40,000  Level Washington Center
Mon 08:23:02 AM 39.9858 -74.8036 199° South 435 501 40,000  Level Washington Center
Mon 08:25:02 AM 39.7594 -74.9086 200° South 435 501 40,000  Level Washington Center
Mon 08:27:01 AM 39.5453 -75.0022 199° South 440 506 40,000  Level Washington Center
Mon 08:29:02 AM 39.3208 -75.1061 200° South 430 495 40,000  Level Washington Center
Mon 08:30:00 AM 39.2064 -75.1550 198° South 425 489 40,000  Level Washington Center
Mon 08:31:02 AM 39.0939 -75.2011 198° South 425 489 40,000  Level Washington Center
Mon 08:32:00 AM 38.9794 -75.2497 198° South 430 495 40,000  Level Washington Center
Mon 08:33:01 AM 38.8650 -75.2958 197° South 430 495 40,000  Level Washington Center
Mon 08:34:01 AM 38.7525 -75.3414 198° South 430 495 40,000  Level Washington Center
Mon 08:35:01 AM 38.6400 -75.3978 201° Southwest 430 495 40,000  Level Washington Center
Mon 08:37:00 AM 38.4253 -75.5281 205° Southwest 436 502 40,000  Level Washington Center
Mon 08:38:00 AM 38.3169 -75.5944 206° Southwest 436 502 40,000  Level Washington Center
Mon 08:39:00 AM 38.2086 -75.6578 205° Southwest 436 502 40,000  Level Washington Center
Mon 08:40:01 AM 38.1042 -75.7236 206° Southwest 436 502 40,000  Level Washington Center
Mon 08:41:02 AM 37.9875 -75.8000 207° Southwest 431 496 40,000  Level Washington Center
Mon 08:43:00 AM 37.7927 -75.9118 204° Southwest  Level FlightAware Approximate
Mon 08:44:01 AM 37.6761 -75.9881 204° Southwest 421 484 40,000  Level Washington Center
Mon 08:45:01 AM 37.5694 -76.0450 203° Southwest 421 484 40,000  Level Washington Center
Mon 08:46:02 AM 37.4650 -76.1100 206° Southwest 421 484 40,000  Level Washington Center
Mon 08:47:00 AM 37.3689 -76.1617 203° Southwest 421 484 40,000  Level Washington Center
Mon 08:48:02 AM 37.2664 -76.2233 206° Southwest 421 484 40,000  Level Washington Center
Mon 08:49:03 AM 37.1639 -76.2850 206° Southwest 421 484 40,000  Level Washington Center
Mon 08:51:02 AM 36.9586 -76.4028 205° Southwest 415 478 40,000  Level Washington Center
Mon 08:52:02 AM 36.8558 -76.4642 206° Southwest 410 472 40,000  Level Washington Center
Mon 08:54:01 AM 36.6319 -76.5678 200° South 405 466 40,000  Level Washington Center
Mon 08:55:02 AM 36.5231 -76.6103 197° South 410 472 40,000  Level Washington Center
Mon 08:56:02 AM 36.4122 -76.6578 199° South 415 478 40,000  Level Washington Center
Mon 08:57:00 AM 36.3033 -76.7003 197° South 415 478 40,000  Level Washington Center
Mon 08:58:00 AM 36.1922 -76.7475 199° South 420 483 40,000  Level Washington Center
Mon 08:59:00 AM 36.0884 -76.7840 196° South  Level FlightAware Approximate
Mon 09:01:01 AM 35.8653 -76.8814 198° South 425 489 40,000  Level Washington Center
Mon 09:02:01 AM 35.7564 -76.9231 197° South 425 489 40,000  Level Washington Center
Mon 09:04:00 AM 35.5513 -76.9980 197° South  Level FlightAware Approximate
Mon 09:05:00 AM 35.4333 -77.0603 197° South 409 471 40,000  Level Washington Center
Mon 09:06:00 AM 35.3697 -77.0697 198° South  Level FlightAware Approximate
Mon 09:06:01 AM 35.3286 -77.1044 199° South 409 471 40,000  Level Washington Center
Mon 09:08:00 AM 35.1249 -77.1845 198° South  Level FlightAware Approximate
Mon 09:09:00 AM 35.0056 -77.2378 198° South 409 471 40,000  Level Washington Center
Mon 09:10:01 AM 34.8964 -77.2786 197° South 409 471 40,000  Level Washington Center
Mon 09:11:00 AM 34.7956 -77.3244 200° South 404 465 40,000  Level Washington Center
Mon 09:12:00 AM 34.6906 -77.3678 199° South 404 465 40,000  Level Washington Center
Mon 09:13:00 AM 34.5836 -77.4083 197° South 404 465 40,000  Level Washington Center
Mon 09:14:01 AM 34.4786 -77.4514 199° South 404 465 40,000  Level Washington Center
Mon 09:15:02 AM 34.3681 -77.4614 184° South 404 465 40,000  Level Washington Center
Mon 09:17:00 AM 34.1406 -77.4664 181° South 410 472 40,000  Level Washington Center
Mon 09:18:00 AM 34.0446 -77.5248 207° Southwest  Level FlightAware Approximate
Mon 09:19:38 AM 33.8494 -77.4739 198° South 404 465 40,000  Level Jacksonville Center
Mon 09:20:38 AM 33.7225 -77.4819 183° South 412 474 40,000  Level Jacksonville Center
Mon 09:21:38 AM 33.6078 -77.4839 181° South 417 480 40,000  Level Jacksonville Center
Mon 09:23:00 AM 33.4851 -77.5806 201° Southwest  Level Estimated
Mon 09:23:38 AM 33.3869 -77.5372 201° Southwest 417 480 40,000  Level Jacksonville Center
Mon 09:25:00 AM 33.3464 -77.8767 198° South  Level FlightAware Approximate
Mon 09:25:00 AM 33.2532 -77.6096 204° Southwest  Level FlightAware Approximate
Mon 09:25:38 AM 33.1806 -77.6439 204° Southwest 405 466 40,000  Level Jacksonville Center
Mon 09:26:38 AM 33.0783 -77.6944 203° Southwest 405 466 40,000  Level Jacksonville Center
Mon 09:27:38 AM 32.9781 -77.7447 203° Southwest 405 466 40,000  Level Jacksonville Center
Mon 09:29:00 AM 32.8445 -77.8177 205° Southwest  Level FlightAware Approximate
Mon 09:30:38 AM 32.6753 -77.8953 205° Southwest 400 460 40,000  Level Jacksonville Center
Mon 09:32:38 AM 32.4706 -77.9978 203° Southwest 400 460 40,000  Level Jacksonville Center
Mon 09:33:38 AM 32.3681 -78.0475 202° Southwest 400 460 40,000  Level Jacksonville Center
Mon 09:34:38 AM 32.2636 -78.0972 202° Southwest 405 466 40,000  Level Jacksonville Center
Mon 09:35:38 AM 32.1592 -78.1492 203° Southwest 411 473 40,000  Level Jacksonville Center
Mon 09:37:00 AM 32.0166 -78.1904 194° South  Level FlightAware Approximate
Mon 09:37:38 AM 31.9483 -78.2606 194° South 411 473 40,000  Level Jacksonville Center
Mon 09:38:38 AM 31.8478 -78.3072 202° Southwest 411 473 40,000  Level Jacksonville Center
Mon 09:39:38 AM 31.7450 -78.3536 201° Southwest 406 467 40,000  Level Jacksonville Center
Mon 09:40:38 AM 31.6403 -78.4053 203° Southwest 411 473 40,000  Level Jacksonville Center
Mon 09:42:00 AM 31.5023 -78.4673 201° Southwest  Level FlightAware Approximate
Mon 09:42:38 AM 31.4331 -78.5028 201° Southwest 406 467 40,000  Level Jacksonville Center
Mon 09:43:38 AM 31.3344 -78.5489 202° Southwest 406 467 40,000  Level Jacksonville Center
Mon 09:45:00 AM 31.1961 -78.6098 201° Southwest  Level FlightAware Approximate
Mon 09:45:38 AM 31.1247 -78.6483 201° Southwest 401 461 40,000  Level Jacksonville Center
Mon 09:47:00 AM 30.9861 -78.7080 200° South  Level FlightAware Approximate
Mon 09:49:38 AM 30.7175 -78.8356 202° Southwest 400 460 40,000  Level Jacksonville Center
Mon 09:50:38 AM 30.6167 -78.8833 202° Southwest 404 465 40,000  Level Jacksonville Center
Mon 09:51:46 AM 30.5114 -78.9281 200° South 377 434 40,000  Level Miami Center
Mon 09:52:46 AM 30.4128 -78.9744 202° Southwest 377 434 40,000  Level Miami Center
Mon 09:53:46 AM 30.3097 -79.0228 202° Southwest 390 449 40,000  Level Miami Center
Mon 09:54:00 AM 30.2755 -79.0110 200° South  Level FlightAware Approximate
Mon 09:54:46 AM 30.2028 -79.0686 200° South 397 457 40,000  Level Miami Center
Mon 09:55:00 AM 30.1740 -79.0544 202° Southwest  Level FlightAware Approximate
Mon 09:55:46 AM 30.1019 -79.1119 200° South 392 451 40,000  Level Miami Center
Mon 09:56:46 AM 30.0033 -79.1578 202° Southwest 397 457 40,000  Level Miami Center
Mon 09:57:46 AM 29.8961 -79.2083 202° Southwest 398 458 40,000  Level Miami Center
Mon 09:58:46 AM 29.7953 -79.2539 201° Southwest 398 458 40,000  Level Miami Center
Mon 09:59:46 AM 29.6944 -79.2994 201° Southwest 398 458 40,000  Level Miami Center
Mon 10:00:46 AM 29.5872 -79.3469 201° Southwest 404 465 40,000  Level Miami Center
Mon 10:01:46 AM 29.4864 -79.3947 202° Southwest 399 459 40,000 -1,050 Level Miami Center
Mon 10:02:46 AM 29.3811 -79.4400 201° Southwest 399 459 37,900 -2,300 Descending Miami Center
Mon 10:04:00 AM 29.2547 -79.4894 204° Southwest  Level FlightAware Approximate
Mon 10:04:46 AM 29.1794 -79.5303 204° Southwest 400 460 33,100  Level Miami Center
Mon 10:05:46 AM 29.0906 -79.5947 212° Southwest 365 420 30,800 -2,150 Descending Miami Center
Mon 10:06:46 AM 29.0572 -79.6958 249° West 338 389 28,800 -2,000 Descending Miami Center
Mon 10:07:46 AM 29.0258 -79.7994 251° West 343 395 26,800 -2,033 Descending Miami Center
Mon 10:09:46 AM 28.9656 -79.9900 250° West 327 376 22,700 -2,000 Descending Miami Center
Mon 10:10:46 AM 28.9361 -80.0889 251° West 327 376 20,800 -1,833 Descending Miami Center
Mon 10:12:46 AM 28.8819 -80.2650 251° West 322 371 17,200 -1,645 Descending Miami Center
Mon 10:14:54 AM 28.8333 -80.4667 255° West 285 328 14,000 -1,016 Descending Orlando TRACON
Mon 10:15:55 AM 28.8167 -80.5667 259° West 287 330 14,000 -209 Level Orlando TRACON
Mon 10:16:49 AM 28.8000 -80.6500 257° West 292 336 13,600 -700 Descending Orlando TRACON
Mon 10:17:55 AM 28.7833 -80.7333 257° West 273 314 12,600 -843 Descending Orlando TRACON
Mon 10:18:50 AM 28.7833 -80.8167 270° West 279 321 11,900 -789 Descending Orlando TRACON
Mon 10:19:49 AM 28.8000 -80.9000 283° West 274 315 11,100 -806 Descending Orlando TRACON
Mon 10:21:00 AM 28.7409 -81.0305 261° West  Level FlightAware Approximate
Mon 10:21:56 AM 28.7500 -81.0667 261° West 254 292 9,400  Level Orlando TRACON
Mon 10:22:56 AM 28.7000 -81.1333 229° Southwest 262 302 9,000 -133 Descending Orlando TRACON
Mon 10:24:56 AM 28.5667 -81.1833 198° South 263 303 9,000 -199 Level Orlando TRACON
Mon 10:25:57 AM 28.4833 -81.1833 180° South 276 318 8,400 -1,097 Descending Orlando TRACON
Mon 10:27:00 AM 28.3698 -81.1833 180° South  Level FlightAware Approximate
Mon 10:27:51 AM 28.3500 -81.1833 180° South 243 280 5,800  Level Orlando TRACON
Mon 10:29:00 AM 28.2256 -81.1833 180° South  Level FlightAware Approximate
Mon 10:29:58 AM 28.3000 -81.2333 180° South 181 208 2,800  Level Orlando TRACON
Mon 10:31:04 AM 28.3333 -81.2833 307° West 173 199 1,600 -955 Descending Orlando TRACON
Mon 10:32:10 AM 28.3833 -81.3000 344° North 137 158 700 -818 Descending Orlando TRACON

Login

Don't have an account? Register now (free) for customized features, flight alerts, and more!